createdAt,value
2022-08-07T00:00:59.901Z,95.00
2022-08-07T00:04:15.426Z,95.30
2022-08-07T00:07:18.776Z,95.60
2022-08-07T00:10:25.943Z,96.20
2022-08-07T00:13:29.350Z,96.50
2022-08-07T00:16:31.315Z,96.60
2022-08-07T00:20:01.649Z,97.20
2022-08-07T00:22:55.018Z,97.50
2022-08-07T00:26:00.445Z,97.80
2022-08-07T00:29:04.646Z,98.00
2022-08-07T00:32:07.903Z,98.30
2022-08-07T00:35:09.920Z,98.40
2022-08-07T00:38:11.605Z,98.80
2022-08-07T00:41:15.294Z,98.90
2022-08-07T00:44:17.151Z,99.30
2022-08-07T00:48:07.839Z,99.60
2022-08-07T00:50:50.397Z,99.90
2022-08-07T00:53:55.265Z,99.90
2022-08-07T00:56:57.902Z,99.90
2022-08-07T00:59:59.730Z,99.90
2022-08-07T01:03:01.388Z,99.90
2022-08-07T01:06:03.429Z,99.90
2022-08-07T01:09:05.147Z,99.90
2022-08-07T01:12:29.082Z,99.90
2022-08-07T01:16:00.563Z,99.90
2022-08-07T01:18:56.137Z,99.90
2022-08-07T01:21:59.140Z,99.90
2022-08-07T01:25:05.126Z,99.90
2022-08-07T01:28:24.200Z,99.90
2022-08-07T01:31:42.589Z,99.90
2022-08-07T01:34:49.144Z,99.90
2022-08-07T01:37:51.548Z,99.90
2022-08-07T01:40:57.812Z,99.90
2022-08-07T01:43:59.532Z,99.90
2022-08-07T01:48:16.915Z,99.90
2022-08-07T01:50:29.178Z,99.90
2022-08-07T01:54:08.924Z,99.90
2022-08-07T01:57:24.450Z,99.90
2022-08-07T02:00:29.284Z,99.90
2022-08-07T02:03:42.746Z,99.90
2022-08-07T02:06:56.145Z,99.90
2022-08-07T02:09:59.418Z,99.90
2022-08-07T02:13:04.449Z,99.90
2022-08-07T02:16:11.891Z,99.90
2022-08-07T02:20:05.586Z,99.90
2022-08-07T02:22:41.221Z,99.90
2022-08-07T02:26:26.623Z,99.90
2022-08-07T02:29:13.544Z,99.90
2022-08-07T02:32:16.652Z,99.90
2022-08-07T02:36:29.723Z,99.90
2022-08-07T02:38:50.856Z,99.90
2022-08-07T02:41:58.763Z,99.90
2022-08-07T02:45:07.320Z,99.90
2022-08-07T02:48:26.281Z,99.90
2022-08-07T02:51:42.563Z,99.90
2022-08-07T02:54:53.652Z,99.90
2022-08-07T02:58:04.044Z,99.90
2022-08-07T03:01:06.401Z,99.90
2022-08-07T03:04:19.025Z,99.90
2022-08-07T03:07:21.541Z,99.90
2022-08-07T03:10:46.674Z,99.90
2022-08-07T03:13:50.222Z,99.90
2022-08-07T03:16:59.891Z,99.90
2022-08-07T03:20:07.494Z,99.90
2022-08-07T03:23:19.187Z,99.90
2022-08-07T03:26:24.647Z,99.90
2022-08-07T03:29:49.617Z,99.90
2022-08-07T03:32:58.249Z,99.90
2022-08-07T03:36:00.509Z,99.90
2022-08-07T03:39:13.897Z,99.90
2022-08-07T03:42:19.975Z,99.90
2022-08-07T03:45:30.599Z,99.90
2022-08-07T03:48:35.124Z,99.90
2022-08-07T03:52:01.091Z,99.90
2022-08-07T03:55:07.018Z,99.90
2022-08-07T03:59:06.866Z,99.90
2022-08-07T04:01:33.924Z,99.90
2022-08-07T04:04:41.658Z,99.90
2022-08-07T04:07:48.457Z,99.90
2022-08-07T04:10:53.912Z,99.90
2022-08-07T04:14:10.607Z,99.90
2022-08-07T04:17:23.841Z,99.90
2022-08-07T04:20:54.631Z,99.90
2022-08-07T04:24:03.506Z,99.90
2022-08-07T04:27:20.341Z,99.90
2022-08-07T04:30:39.249Z,99.90
2022-08-07T04:33:46.025Z,99.90
2022-08-07T04:36:48.781Z,99.90
2022-08-07T04:39:51.243Z,99.90
2022-08-07T04:42:53.450Z,99.90
2022-08-07T04:46:25.842Z,99.90
2022-08-07T04:49:57.416Z,99.90
2022-08-07T04:53:07.923Z,99.90
2022-08-07T04:58:16.095Z,99.90
2022-08-07T05:00:18.886Z,99.90
2022-08-07T05:04:00.152Z,99.90
2022-08-07T05:07:09.510Z,99.90
2022-08-07T05:10:45.321Z,99.90
2022-08-07T05:14:53.040Z,99.90
2022-08-07T05:17:52.577Z,99.90
2022-08-07T05:20:49.383Z,99.90
2022-08-07T05:24:05.870Z,99.90
2022-08-07T05:27:14.525Z,99.90
2022-08-07T05:30:34.140Z,99.90
2022-08-07T05:33:40.986Z,99.90
2022-08-07T05:37:05.731Z,99.90
2022-08-07T05:40:18.889Z,99.90
2022-08-07T05:43:49.867Z,99.90
2022-08-07T05:46:44.127Z,99.90
2022-08-07T05:49:49.488Z,99.90
2022-08-07T05:52:51.542Z,99.90
2022-08-07T05:56:02.962Z,99.90
2022-08-07T05:59:09.988Z,99.90
2022-08-07T06:02:20.103Z,99.90
2022-08-07T06:05:31.335Z,99.90
2022-08-07T06:08:36.911Z,99.90
2022-08-07T06:11:44.248Z,99.90
2022-08-07T06:14:49.310Z,99.90
2022-08-07T06:17:55.031Z,99.90
2022-08-07T06:22:11.539Z,99.90
2022-08-07T06:24:37.657Z,99.90
2022-08-07T06:27:59.798Z,99.90
2022-08-07T06:31:03.790Z,99.90
2022-08-07T06:34:07.371Z,99.90
2022-08-07T06:37:11.274Z,99.90
2022-08-07T06:40:21.308Z,99.90
2022-08-07T06:43:26.772Z,99.90
2022-08-07T06:46:35.437Z,99.90
2022-08-07T06:49:50.668Z,99.90
2022-08-07T06:52:57.105Z,99.60
2022-08-07T06:56:01.106Z,99.50
2022-08-07T07:00:14.269Z,99.40
2022-08-07T07:02:48.524Z,99.00
2022-08-07T07:06:05.475Z,98.50
2022-08-07T07:09:25.293Z,98.20
2022-08-07T07:12:54.247Z,97.40
2022-08-07T07:16:03.003Z,96.30
2022-08-07T07:19:54.775Z,96.40
2022-08-07T07:22:33.900Z,95.90
2022-08-07T07:26:33.290Z,95.10
2022-08-07T07:29:38.560Z,95.40
2022-08-07T07:32:38.829Z,95.00
2022-08-07T07:36:04.141Z,94.30
2022-08-07T07:39:09.460Z,94.10
2022-08-07T07:42:13.988Z,93.70
2022-08-07T07:46:35.555Z,93.50
2022-08-07T07:48:48.193Z,93.10
2022-08-07T07:51:58.010Z,92.50
2022-08-07T07:55:03.384Z,92.00
2022-08-07T07:58:05.831Z,92.20
2022-08-07T08:02:03.022Z,92.00
2022-08-07T08:04:33.480Z,91.80
2022-08-07T08:07:42.505Z,91.20
2022-08-07T08:11:04.509Z,91.40
2022-08-07T08:14:06.619Z,91.00
2022-08-07T08:18:36.531Z,91.50
2022-08-07T08:20:36.572Z,90.70
2022-08-07T08:23:56.996Z,91.00
2022-08-07T08:27:09.366Z,90.50
2022-08-07T08:30:14.405Z,90.60
2022-08-07T08:33:24.229Z,90.90
2022-08-07T08:36:32.752Z,90.90
2022-08-07T08:39:39.679Z,90.70
2022-08-07T08:43:19.860Z,91.10
2022-08-07T08:46:45.062Z,90.50
2022-08-07T08:50:04.726Z,89.70
2022-08-07T08:53:29.433Z,89.80
2022-08-07T08:56:36.729Z,90.00
2022-08-07T08:59:57.250Z,90.30
2022-08-07T09:03:03.830Z,90.70
2022-08-07T09:06:17.954Z,90.50
2022-08-07T09:09:43.581Z,90.10
2022-08-07T09:13:03.407Z,90.30
2022-08-07T09:16:35.874Z,90.40
2022-08-07T09:19:55.412Z,90.30
2022-08-07T09:24:33.579Z,90.10
2022-08-07T09:27:11.981Z,90.30
2022-08-07T09:30:15.439Z,90.20
2022-08-07T09:34:15.003Z,89.80
2022-08-07T09:37:53.771Z,89.70
2022-08-07T09:41:14.628Z,88.60
2022-08-07T09:45:03.507Z,88.20
2022-08-07T09:48:30.184Z,87.60
2022-08-07T09:52:16.044Z,86.60
2022-08-07T09:56:04.181Z,86.20
2022-08-07T09:59:44.319Z,84.80
2022-08-07T10:04:06.373Z,84.70
2022-08-07T10:07:25.620Z,83.40
2022-08-07T10:11:16.931Z,80.60
2022-08-07T10:14:30.389Z,80.30
2022-08-07T10:18:10.719Z,78.70
2022-08-07T10:22:12.516Z,77.20
2022-08-07T10:24:56.232Z,77.40
2022-08-07T10:28:14.507Z,75.90
2022-08-07T10:31:38.781Z,75.30
2022-08-07T10:35:09.143Z,74.60
2022-08-07T10:38:47.887Z,71.90
2022-08-07T10:42:09.868Z,72.00
2022-08-07T10:45:44.888Z,68.60
2022-08-07T10:49:03.107Z,66.90
2022-08-07T10:52:14.778Z,69.30
2022-08-07T10:55:38.525Z,66.90
2022-08-07T10:59:21.288Z,66.80
2022-08-07T11:02:34.960Z,66.30
2022-08-07T11:05:50.858Z,65.70
2022-08-07T11:09:04.290Z,65.70
2022-08-07T11:12:32.045Z,64.50
2022-08-07T11:15:39.725Z,63.80
2022-08-07T11:19:21.789Z,63.20
2022-08-07T11:23:02.648Z,64.00
2022-08-07T11:26:14.039Z,63.60
2022-08-07T11:30:18.515Z,62.40
2022-08-07T11:33:59.634Z,61.70
2022-08-07T11:37:11.626Z,62.40
2022-08-07T11:40:22.685Z,62.10
2022-08-07T11:43:54.360Z,61.20
2022-08-07T11:47:38.676Z,61.60
2022-08-07T11:51:09.679Z,59.50
2022-08-07T11:54:41.915Z,59.90
2022-08-07T11:58:01.899Z,59.40
2022-08-07T12:01:25.786Z,59.40
2022-08-07T12:05:28.941Z,58.80
2022-08-07T12:09:09.180Z,59.10
2022-08-07T12:12:36.993Z,58.50
2022-08-07T12:16:05.663Z,58.60
2022-08-07T12:19:22.005Z,58.30
2022-08-07T12:22:55.920Z,58.20
2022-08-07T12:26:22.811Z,57.90
2022-08-07T12:29:38.317Z,57.50
2022-08-07T12:33:01.921Z,57.20
2022-08-07T12:36:33.619Z,56.30
2022-08-07T12:39:43.733Z,56.10
2022-08-07T12:42:55.126Z,55.90
2022-08-07T12:46:16.052Z,55.90
2022-08-07T12:49:52.924Z,56.20
2022-08-07T12:53:17.849Z,55.50
2022-08-07T12:56:30.949Z,55.60
2022-08-07T12:59:54.868Z,55.90
2022-08-07T13:03:01.291Z,55.60
2022-08-07T13:06:27.254Z,55.30
2022-08-07T13:10:21.532Z,55.20
2022-08-07T13:13:48.409Z,55.00
2022-08-07T13:17:04.696Z,54.90
2022-08-07T13:20:15.197Z,54.40
2022-08-07T13:24:01.797Z,54.50
2022-08-07T13:27:11.000Z,54.50
2022-08-07T13:30:19.379Z,54.40
2022-08-07T13:34:31.779Z,54.30
2022-08-07T13:37:33.448Z,53.90
2022-08-07T13:40:47.273Z,54.20
2022-08-07T13:43:56.088Z,54.00
2022-08-07T13:47:00.979Z,53.40
2022-08-07T13:50:34.720Z,53.50
2022-08-07T13:53:59.390Z,52.90
2022-08-07T13:56:59.843Z,52.40
2022-08-07T14:00:04.050Z,52.70
2022-08-07T14:03:06.460Z,52.50
2022-08-07T14:06:10.275Z,52.50
2022-08-07T14:10:12.386Z,52.30
2022-08-07T14:12:55.669Z,52.50
2022-08-07T14:16:06.348Z,52.80
2022-08-07T14:20:42.516Z,52.90
2022-08-07T14:23:05.823Z,52.50
2022-08-07T14:26:30.130Z,52.40
2022-08-07T14:30:06.432Z,52.00
2022-08-07T14:33:07.227Z,52.10
2022-08-07T14:36:10.543Z,51.60
2022-08-07T14:40:18.105Z,51.80
2022-08-07T14:43:01.218Z,51.60
2022-08-07T14:46:04.342Z,51.50
2022-08-07T14:52:33.925Z,51.70
2022-08-07T14:55:55.672Z,51.00
2022-08-07T14:59:14.041Z,51.00
2022-08-07T15:05:54.341Z,50.20
2022-08-07T15:12:36.794Z,49.90
2022-08-07T15:15:52.518Z,49.80
2022-08-07T15:19:00.628Z,49.70
2022-08-07T15:22:05.745Z,49.20
2022-08-07T15:25:36.436Z,49.20
2022-08-07T15:32:07.578Z,48.90
2022-08-07T15:36:00.295Z,49.00
2022-08-07T15:38:51.268Z,49.10
2022-08-07T15:42:46.181Z,49.00
2022-08-07T15:45:24.940Z,48.80
2022-08-07T15:49:04.043Z,49.00
2022-08-07T15:52:13.897Z,48.40
2022-08-07T15:55:19.925Z,48.30
2022-08-07T15:58:52.100Z,48.40
2022-08-07T16:02:01.765Z,48.80
2022-08-07T16:05:15.459Z,49.20
2022-08-07T16:08:30.668Z,49.10
2022-08-07T16:12:04.718Z,48.80
2022-08-07T16:15:55.209Z,48.70
2022-08-07T16:19:41.928Z,48.80
2022-08-07T16:23:53.143Z,48.50
2022-08-07T16:26:58.780Z,48.60
2022-08-07T16:30:29.436Z,48.50
2022-08-07T16:34:02.196Z,48.60
2022-08-07T16:38:04.633Z,48.50
2022-08-07T16:41:22.356Z,48.60
2022-08-07T16:44:57.253Z,48.50
2022-08-07T16:48:58.384Z,48.30
2022-08-07T16:52:51.371Z,48.30
2022-08-07T16:55:50.340Z,47.90
2022-08-07T16:59:46.675Z,47.80
2022-08-07T17:03:17.202Z,47.60
2022-08-07T17:07:02.981Z,47.70
2022-08-07T17:10:33.284Z,47.90
2022-08-07T17:14:17.802Z,47.50
2022-08-07T17:17:47.512Z,47.80
2022-08-07T17:20:53.973Z,47.60
2022-08-07T17:24:33.447Z,47.60
2022-08-07T17:27:51.130Z,47.80
2022-08-07T17:31:16.167Z,47.50
2022-08-07T17:35:32.922Z,47.70
2022-08-07T17:38:33.621Z,47.30
2022-08-07T17:42:02.700Z,47.60
2022-08-07T17:45:25.185Z,47.80
2022-08-07T17:48:34.205Z,47.20
2022-08-07T17:52:00.005Z,47.00
2022-08-07T17:56:00.224Z,46.80
2022-08-07T17:58:50.245Z,47.20
2022-08-07T18:02:01.230Z,47.20
2022-08-07T18:05:21.256Z,47.20
2022-08-07T18:09:01.490Z,47.60
2022-08-07T18:12:28.463Z,48.00
2022-08-07T18:15:43.099Z,48.00
2022-08-07T18:21:11.510Z,48.70
2022-08-07T18:22:40.100Z,48.90
2022-08-07T18:25:48.161Z,49.10
2022-08-07T18:30:06.641Z,49.40
2022-08-07T18:32:54.976Z,49.60
2022-08-07T18:36:39.677Z,49.90
2022-08-07T18:40:38.838Z,50.50
2022-08-07T18:43:57.719Z,50.50
2022-08-07T18:47:26.025Z,51.00
2022-08-07T18:52:33.710Z,51.30
2022-08-07T18:58:52.052Z,52.00
2022-08-07T19:02:42.414Z,52.30
2022-08-07T19:06:03.251Z,52.40
2022-08-07T19:09:55.857Z,52.60
2022-08-07T19:13:21.830Z,52.70
2022-08-07T19:17:04.423Z,52.90
2022-08-07T19:20:28.785Z,53.00
2022-08-07T19:23:57.918Z,53.20
2022-08-07T19:28:56.737Z,53.40
2022-08-07T19:31:04.084Z,53.30
2022-08-07T19:33:58.389Z,53.30
2022-08-07T19:37:10.027Z,53.70
2022-08-07T19:40:31.754Z,53.70
2022-08-07T19:43:51.924Z,53.80
2022-08-07T19:47:08.591Z,53.90
2022-08-07T19:50:44.117Z,54.20
2022-08-07T19:54:33.549Z,53.90
2022-08-07T19:58:02.037Z,54.00
2022-08-07T20:00:28.144Z,54.20
2022-08-07T20:03:35.487Z,54.60
2022-08-07T20:06:43.006Z,54.40
2022-08-07T20:10:35.616Z,55.30
2022-08-07T20:13:23.890Z,54.70
2022-08-07T20:16:36.406Z,54.80
2022-08-07T20:19:48.149Z,55.20
2022-08-07T20:23:22.853Z,55.30
2022-08-07T20:26:38.577Z,55.20
2022-08-07T20:29:59.379Z,55.20
2022-08-07T20:33:05.395Z,55.20
2022-08-07T20:36:13.266Z,55.30
2022-08-07T20:40:01.362Z,55.40
2022-08-07T20:42:56.095Z,55.50
2022-08-07T20:46:28.565Z,55.60
2022-08-07T20:50:00.114Z,55.50
2022-08-07T20:52:51.395Z,55.50
2022-08-07T20:55:57.591Z,55.60
2022-08-07T20:59:06.093Z,55.90
2022-08-07T21:02:53.983Z,55.80
2022-08-07T21:06:21.452Z,56.30
2022-08-07T21:09:51.520Z,56.40
2022-08-07T21:12:58.629Z,56.40
2022-08-07T21:16:07.493Z,56.20
2022-08-07T21:19:13.989Z,56.70
2022-08-07T21:22:19.289Z,56.90
2022-08-07T21:25:38.781Z,56.50
2022-08-07T21:28:51.760Z,56.60
2022-08-07T21:32:47.265Z,56.70
2022-08-07T21:36:04.010Z,57.20
2022-08-07T21:39:47.529Z,57.30
2022-08-07T21:43:04.467Z,57.00
2022-08-07T21:46:25.211Z,57.30
2022-08-07T21:50:02.694Z,57.20
2022-08-07T21:53:26.952Z,57.40
2022-08-07T21:56:50.631Z,58.10
2022-08-07T22:00:06.234Z,57.50
2022-08-07T22:03:30.632Z,58.30
2022-08-07T22:06:45.171Z,57.70
2022-08-07T22:09:54.206Z,57.90
2022-08-07T22:13:03.197Z,57.80
2022-08-07T22:16:44.519Z,58.80
2022-08-07T22:20:23.300Z,58.10
2022-08-07T22:23:44.947Z,58.40
2022-08-07T22:26:56.319Z,59.30
2022-08-07T22:30:12.354Z,58.90
2022-08-07T22:33:15.106Z,58.40
2022-08-07T22:36:29.197Z,58.40
2022-08-07T22:39:52.672Z,58.60
2022-08-07T22:43:07.334Z,58.80
2022-08-07T22:47:04.440Z,59.00
2022-08-07T22:50:33.318Z,59.10
2022-08-07T22:54:09.367Z,59.30
2022-08-07T22:57:40.912Z,59.70
2022-08-07T23:01:07.002Z,59.50
2022-08-07T23:04:20.676Z,59.50
2022-08-07T23:07:51.604Z,59.50
2022-08-07T23:11:21.343Z,59.50
2022-08-07T23:14:37.792Z,59.80
2022-08-07T23:17:56.214Z,60.10
2022-08-07T23:21:16.458Z,60.70
2022-08-07T23:24:28.919Z,61.10
2022-08-07T23:28:22.686Z,60.90
2022-08-07T23:34:20.124Z,63.20
2022-08-07T23:35:16.731Z,62.20
2022-08-07T23:38:36.799Z,61.70
2022-08-07T23:42:21.560Z,62.10
2022-08-07T23:46:01.973Z,62.50
2022-08-07T23:49:15.355Z,62.70
2022-08-07T23:52:58.835Z,64.20
2022-08-07T23:56:27.039Z,63.40
